Time;durP1;ratioP1;P1;durP2;ratioP2;P2;SDS_P1;SDS_P2;PMS_P1;PMS_P2;Temp;Humidity;BMP_temperature;BMP_pressure;BME280_temperature;BME280_humidity;BME280_pressure;Samples;Min_cycle;Max_cycle;Signal;HPM_P1;HPM_P2
2021/04/21 00:02:19;;;;;;;33.00;21.50;;;;;;;9.18;57.58;99539.56;5051414;28;20483;-71
2021/04/21 00:04:46;;;;;;;30.45;19.13;;;;;;;8.84;58.33;99547.50;5033824;28;20307;-70
2021/04/21 00:07:16;;;;;;;34.65;19.75;;;;;;;8.65;59.36;99538.53;5051656;28;20491;-67
2021/04/21 00:09:42;;;;;;;31.00;20.05;;;;;;;8.55;59.47;99543.25;5051424;28;20469;-67
2021/04/21 00:12:08;;;;;;;27.70;19.10;;;;;;;8.49;60.00;99546.47;5051651;28;20463;-70
2021/04/21 00:14:34;;;;;;;26.10;18.40;;;;;;;8.30;60.48;99547.50;5051039;28;20509;-70
2021/04/21 00:17:01;;;;;;;32.78;19.67;;;;;;;8.33;60.49;99543.28;5032414;28;20033;-67
2021/04/21 00:19:30;;;;;;;33.50;21.15;;;;;;;8.27;60.88;99542.59;5051101;28;20025;-70
2021/04/21 00:22:00;;;;;;;32.78;20.23;;;;;;;8.22;61.08;99545.47;5051459;28;20126;-67
2021/04/21 00:24:29;;;;;;;35.22;22.42;;;;;;;8.31;60.70;99546.38;5050961;28;20028;-70
2021/04/21 00:26:56;;;;;;;34.03;20.23;;;;;;;8.40;60.74;99543.63;5051353;28;20039;-67
2021/04/21 00:29:23;;;;;;;36.88;22.38;;;;;;;8.43;60.67;99545.78;5051156;28;20042;-67
2021/04/21 00:31:49;;;;;;;40.38;23.27;;;;;;;8.51;60.29;99558.16;5051081;28;20025;-67
2021/04/21 00:34:18;;;;;;;35.30;22.20;;;;;;;8.55;60.51;99553.59;5050945;28;20040;-70
2021/04/21 00:36:47;;;;;;;38.35;23.25;;;;;;;8.60;60.05;99547.88;5050947;28;20044;-70
2021/04/21 00:39:15;;;;;;;31.60;20.95;;;;;;;8.70;59.41;99546.78;5033058;28;20036;-67
2021/04/21 00:41:58;;;;;;;31.27;20.05;;;;;;;8.75;59.31;99552.22;5050842;28;20032;-66
2021/04/21 00:44:48;;;;;;;30.50;20.05;;;;;;;8.78;58.56;99553.56;5050854;28;20029;-67
2021/04/21 00:47:38;;;;;;;29.08;18.85;;;;;;;8.85;58.19;99559.47;5032812;28;20020;-67
2021/04/21 00:50:14;;;;;;;27.50;18.58;;;;;;;8.92;58.13;99550.63;5050644;28;20130;-67
2021/04/21 00:52:50;;;;;;;29.42;19.73;;;;;;;8.92;58.29;99556.22;5051120;28;20032;-67
2021/04/21 00:55:18;;;;;;;30.38;20.48;;;;;;;9.05;58.02;99555.31;5032632;28;20040;-67
2021/04/21 00:58:08;;;;;;;31.75;19.63;;;;;;;9.06;57.83;99554.16;5032889;28;20029;-67
2021/04/21 01:00:37;;;;;;;30.77;19.03;;;;;;;9.08;57.73;99548.25;5050371;28;20560;-70
2021/04/21 01:03:17;;;;;;;29.90;19.77;;;;;;;9.04;57.42;99552.84;5050561;28;20049;-71
2021/04/21 01:05:46;;;;;;;23.80;17.25;;;;;;;9.11;56.99;99556.78;5050408;28;20112;-70
2021/04/21 01:08:15;;;;;;;28.27;19.15;;;;;;;9.18;56.77;99547.13;5050358;28;20162;-67
2021/04/21 01:10:49;;;;;;;27.25;18.98;;;;;;;9.22;56.82;99548.94;5050170;28;20501;-71
2021/04/21 01:13:16;;;;;;;26.65;19.10;;;;;;;9.26;56.29;99546.31;5032584;28;20033;-70
2021/04/21 01:15:44;;;;;;;32.53;20.00;;;;;;;9.31;56.00;99548.16;5032259;28;20032;-70
2021/04/21 01:18:12;;;;;;;26.02;18.27;;;;;;;9.35;55.82;99552.75;5032444;28;20450;-71
2021/04/21 01:20:48;;;;;;;27.85;18.98;;;;;;;9.46;55.00;99552.47;5050064;28;20398;-70
2021/04/21 01:23:29;;;;;;;23.73;17.40;;;;;;;9.39;54.87;99555.72;5032220;28;20041;-67
2021/04/21 01:26:20;;;;;;;22.10;15.88;;;;;;;9.43;54.61;99555.91;5032425;28;20116;-70
2021/04/21 01:28:50;;;;;;;25.38;16.88;;;;;;;9.40;54.38;99551.78;5049861;28;20068;-70
2021/04/21 01:31:18;;;;;;;27.58;17.48;;;;;;;9.50;54.25;99547.84;5032387;28;20078;-70
2021/04/21 01:33:47;;;;;;;26.63;17.83;;;;;;;9.49;54.70;99549.00;5050152;28;20033;-67
2021/04/21 01:36:15;;;;;;;26.52;17.58;;;;;;;9.54;54.68;99548.88;5050118;28;20376;-71
2021/04/21 01:38:41;;;;;;;25.20;16.90;;;;;;;9.60;54.38;99555.13;5049962;28;20510;-70
2021/04/21 01:41:11;;;;;;;23.67;18.08;;;;;;;9.64;54.00;99556.91;5050146;28;20466;-66
2021/04/21 01:43:46;;;;;;;25.30;17.55;;;;;;;9.68;53.63;99545.91;5032131;28;20097;-71
2021/04/21 01:46:14;;;;;;;36.22;21.40;;;;;;;9.77;53.76;99545.91;5042656;28;20033;-67
2021/04/21 01:48:42;;;;;;;26.40;18.42;;;;;;;9.69;54.16;99548.38;5049428;28;20040;-67
2021/04/21 01:51:17;;;;;;;27.98;19.77;;;;;;;9.71;54.15;99542.44;5049922;28;20033;-67
2021/04/21 01:53:51;;;;;;;26.80;19.10;;;;;;;9.63;54.21;99563.63;5050032;28;20524;-70
2021/04/21 01:56:36;;;;;;;22.80;16.42;;;;;;;9.50;54.44;99550.66;5050103;28;20037;-71
2021/04/21 01:59:10;;;;;;;21.65;16.20;;;;;;;9.20;54.88;99551.22;5020510;28;20037;-70
2021/04/21 02:02:05;;;;;;;24.30;17.83;;;;;;;9.15;54.95;99556.13;5031753;28;20032;-68
2021/04/21 02:04:45;;;;;;;24.50;18.73;;;;;;;9.11;55.35;99558.75;5019116;28;20438;-66
2021/04/21 02:07:29;;;;;;;;;;;;;;;9.07;55.37;99557.75;5030685;28;20032;-67
2021/04/21 02:10:16;;;;;;;24.77;16.13;;;;;;;8.78;56.04;99559.94;5012283;28;19950;-67
2021/04/21 02:13:00;;;;;;;19.23;14.93;;;;;;;8.82;56.32;99558.16;5018807;28;20467;-69
2021/04/21 02:15:40;;;;;;;22.58;15.85;;;;;;;8.88;56.80;99555.22;5029662;28;20048;-71
2021/04/21 02:18:24;;;;;;;23.52;16.45;;;;;;;8.89;56.74;99557.72;5029907;28;20095;-69
2021/04/21 02:21:20;;;;;;;26.05;16.50;;;;;;;8.95;56.40;99553.63;5029567;28;20025;-66
2021/04/21 02:24:02;;;;;;;25.00;16.23;;;;;;;8.96;56.80;99557.25;5029657;28;20033;-70
2021/04/21 02:26:40;;;;;;;20.33;14.88;;;;;;;9.10;56.95;99554.31;5012085;28;20091;-71
2021/04/21 02:29:23;;;;;;;20.80;14.77;;;;;;;9.00;56.12;99561.03;5029707;28;20431;-70
2021/04/21 02:32:04;;;;;;;21.20;15.18;;;;;;;8.97;56.73;99554.09;5030071;28;20191;-70
2021/04/21 02:34:32;;;;;;;;;;;;;;;9.01;56.98;99559.06;5030009;28;20033;-70
2021/04/21 02:37:13;;;;;;;29.55;17.15;;;;;;;8.93;57.00;99557.84;5029959;28;19920;-71
2021/04/21 02:39:47;;;;;;;27.73;15.38;;;;;;;8.99;57.24;99562.16;5029646;28;20064;-70
2021/04/21 02:42:48;;;;;;;26.35;18.17;;;;;;;8.97;57.51;99556.09;5015692;28;20060;-71
2021/04/21 02:45:19;;;;;;;;;;;;;;;8.90;57.41;99562.13;5013077;28;20058;-66
2021/04/21 02:47:53;;;;;;;23.95;15.27;;;;;;;8.88;57.73;99563.59;5033407;28;19963;-70
2021/04/21 02:50:33;;;;;;;21.45;15.60;;;;;;;8.95;57.26;99563.97;5033084;28;20081;-66
2021/04/21 02:53:16;;;;;;;;;;;;;;;8.96;56.28;99560.84;5033285;28;20115;-70
2021/04/21 02:56:00;;;;;;;18.42;13.77;;;;;;;8.83;56.30;99559.81;5014920;28;19920;-67
2021/04/21 02:59:15;;;;;;;17.00;12.57;;;;;;;8.65;57.31;99564.47;5032684;28;20025;-70
2021/04/21 03:02:05;;;;;;;24.02;12.63;;;;;;;8.59;57.49;99570.50;4990973;28;20388;-71
2021/04/21 03:04:42;;;;;;;21.83;13.75;;;;;;;8.64;57.27;99574.00;5034671;28;20032;-71
2021/04/21 03:07:15;;;;;;;17.33;12.52;;;;;;;8.46;57.78;99567.47;5040048;28;20461;-69
2021/04/21 03:09:49;;;;;;;19.67;13.57;;;;;;;8.55;57.60;99573.91;5034749;28;20040;-70
2021/04/21 03:12:20;;;;;;;17.20;12.70;;;;;;;8.59;57.27;99571.31;5039968;28;20471;-70
2021/04/21 03:14:46;;;;;;;;;;;;;;;8.52;57.34;99577.34;5053056;28;20162;-70
2021/04/21 03:17:12;;;;;;;19.35;12.68;;;;;;;8.42;57.91;99572.84;5034571;28;19960;-66
2021/04/21 03:19:57;;;;;;;17.52;12.43;;;;;;;8.31;57.57;99576.19;5052472;28;20525;-71
2021/04/21 03:22:27;;;;;;;17.85;12.02;;;;;;;8.36;57.84;99576.06;5052784;28;20060;-71
2021/04/21 03:25:02;;;;;;;16.58;12.23;;;;;;;8.29;58.11;99579.31;5052333;28;20070;-69
2021/04/21 03:27:32;;;;;;;18.35;13.40;;;;;;;8.32;58.18;99580.63;5049817;28;20029;-71
2021/04/21 03:30:03;;;;;;;16.50;12.35;;;;;;;8.31;58.60;99590.97;5052119;28;20040;-66
2021/04/21 03:32:35;;;;;;;20.15;13.70;;;;;;;8.19;58.88;99585.94;5052266;28;20050;-67
2021/04/21 03:35:02;;;;;;;22.05;14.65;;;;;;;8.19;59.09;99590.72;5034038;28;20074;-67
2021/04/21 03:38:06;;;;;;;26.52;16.80;;;;;;;8.27;58.22;99593.56;5052191;28;20028;-70
2021/04/21 03:40:33;;;;;;;25.17;15.15;;;;;;;8.36;58.27;99603.94;5051690;28;20053;-66
2021/04/21 03:43:00;;;;;;;22.85;15.20;;;;;;;8.47;57.72;99599.75;5051885;28;20049;-66
2021/04/21 03:45:27;;;;;;;39.08;14.38;;;;;;;8.52;57.55;99599.66;5051628;28;20029;-67
2021/04/21 03:47:54;;;;;;;26.92;15.98;;;;;;;8.44;57.47;99608.75;5052368;28;20020;-66
2021/04/21 03:50:21;;;;;;;51.20;23.00;;;;;;;8.32;58.43;99605.69;5051767;28;20053;-67
2021/04/21 03:52:53;;;;;;;24.70;17.10;;;;;;;8.48;57.94;99611.72;5045246;28;20501;-69
2021/04/21 03:55:19;;;;;;;31.15;18.65;;;;;;;8.50;58.16;99615.88;5033697;28;20033;-67
2021/04/21 03:57:50;;;;;;;33.50;22.35;;;;;;;8.54;57.96;99619.66;5034037;28;20032;-67
2021/04/21 04:00:18;;;;;;;37.20;26.73;;;;;;;8.63;57.87;99618.91;5051843;28;20429;-70
2021/04/21 04:02:52;;;;;;;33.33;21.20;;;;;;;8.70;57.46;99614.53;5051684;28;20049;-70
2021/04/21 04:05:21;;;;;;;40.88;28.80;;;;;;;8.70;56.59;99616.50;5052070;28;20060;-70
2021/04/21 04:07:51;;;;;;;37.70;24.40;;;;;;;8.77;56.37;99616.84;5052041;28;20467;-70
2021/04/21 04:10:17;;;;;;;53.13;30.67;;;;;;;8.94;55.91;99623.69;5046303;28;20645;-66
2021/04/21 04:12:44;;;;;;;32.85;22.60;;;;;;;9.23;55.69;99625.13;5031706;28;20038;-69
2021/04/21 04:15:13;;;;;;;37.25;25.33;;;;;;;9.63;54.59;99625.09;5051251;28;20037;-71
2021/04/21 04:17:43;;;;;;;38.20;21.75;;;;;;;9.95;53.22;99634.19;5051071;28;20033;-70
2021/04/21 04:20:13;;;;;;;;;;;;;;;9.73;54.30;99645.47;5033776;28;20120;-66
2021/04/21 04:22:44;;;;;;;38.88;21.98;;;;;;;9.45;54.60;99640.16;5038744;28;19956;-71
2021/04/21 04:25:12;;;;;;;36.83;24.75;;;;;;;9.13;55.69;99649.38;5051117;28;20036;-67
2021/04/21 04:27:39;;;;;;;50.53;28.63;;;;;;;8.99;55.95;99648.66;5051444;28;20100;-69
2021/04/21 04:30:06;;;;;;;48.05;32.53;;;;;;;8.78;56.63;99651.97;5029649;28;20065;-70
2021/04/21 04:32:33;;;;;;;54.78;36.30;;;;;;;8.55;57.35;99660.34;5043504;28;20031;-67
2021/04/21 04:34:59;;;;;;;64.35;35.28;;;;;;;8.62;57.41;99659.91;5048352;28;20037;-67
2021/04/21 04:37:27;;;;;;;57.85;34.33;;;;;;;8.44;58.07;99670.06;5037556;28;20024;-66
2021/04/21 04:39:54;;;;;;;59.63;27.45;;;;;;;8.59;57.59;99677.28;5034558;28;20587;-67
2021/04/21 04:42:20;;;;;;;43.70;23.42;;;;;;;8.35;58.58;99674.78;5050919;28;20033;-70
2021/04/21 04:44:50;;;;;;;67.15;42.75;;;;;;;8.47;58.77;99674.19;5050722;28;20086;-67
2021/04/21 04:47:38;;;;;;;70.80;44.00;;;;;;;8.58;59.43;99675.63;5050856;28;20025;-67
2021/04/21 04:50:07;;;;;;;42.03;25.15;;;;;;;8.64;58.79;99679.13;5050782;28;20037;-67
2021/04/21 04:52:35;;;;;;;38.05;24.20;;;;;;;8.56;58.98;99673.16;5031942;28;20037;-72
2021/04/21 04:55:04;;;;;;;55.58;26.90;;;;;;;8.27;59.74;99685.53;5050470;28;20095;-67
2021/04/21 04:57:31;;;;;;;56.38;33.40;;;;;;;8.32;60.74;99689.31;5029563;28;20029;-67
2021/04/21 05:00:04;;;;;;;51.30;31.90;;;;;;;8.51;60.95;99680.84;5048251;28;20037;-72
2021/04/21 05:02:34;;;;;;;46.35;26.80;;;;;;;8.60;60.62;99692.06;5049972;28;20045;-67
2021/04/21 05:05:04;;;;;;;34.53;24.88;;;;;;;8.64;61.50;99681.91;5032482;28;20028;-71
2021/04/21 05:07:43;;;;;;;47.88;28.67;;;;;;;8.82;60.99;99689.25;5032762;28;20040;-69
2021/04/21 05:10:27;;;;;;;50.85;26.67;;;;;;;8.76;61.65;99693.31;5047787;28;20487;-69
2021/04/21 05:12:56;;;;;;;46.10;27.05;;;;;;;8.96;61.21;99693.94;5031888;28;20044;-70
2021/04/21 05:15:37;;;;;;;54.63;32.03;;;;;;;9.05;61.52;99692.03;5024640;28;20525;-70
2021/04/21 05:18:17;;;;;;;48.88;29.33;;;;;;;8.98;62.56;99689.66;5046102;28;20037;-70
2021/04/21 05:21:00;;;;;;;;;;;;;;;9.29;62.20;99695.59;5037866;28;20024;-67
2021/04/21 05:24:03;;;;;;;43.85;25.55;;;;;;;9.45;60.84;99694.00;5029813;28;20373;-67
2021/04/21 05:26:45;;;;;;;37.53;23.52;;;;;;;9.53;59.97;99687.66;5050243;28;20406;-67
2021/04/21 05:29:47;;;;;;;37.92;24.10;;;;;;;9.75;59.47;99690.66;5039924;28;20032;-67
2021/04/21 05:32:36;;;;;;;39.75;24.20;;;;;;;9.95;59.84;99690.06;5050291;28;20037;-70
2021/04/21 05:35:40;;;;;;;49.50;25.05;;;;;;;10.04;59.56;99698.47;5206429;22;20738;-73
2021/04/21 05:38:29;;;;;;;43.78;19.58;;;;;;;10.25;58.40;99698.66;5038862;28;20047;-67
2021/04/21 05:41:30;;;;;;;33.05;18.55;;;;;;;10.53;57.61;99708.75;5048820;28;20041;-71
2021/04/21 05:44:23;;;;;;;33.88;20.13;;;;;;;10.76;57.23;99697.38;5049347;28;20120;-71
2021/04/21 05:46:59;;;;;;;32.78;18.40;;;;;;;10.97;56.61;99696.69;5047335;28;20178;-78
2021/04/21 05:50:03;;;;;;;27.48;16.63;;;;;;;11.42;54.00;99695.41;5047455;28;20114;-73
2021/04/21 05:53:04;;;;;;;25.63;14.00;;;;;;;11.69;51.28;99696.94;5031483;28;20083;-72
2021/04/21 05:55:29;;;;;;;;;;;;;;;11.83;49.20;99696.72;5021653;28;20045;-73
2021/04/21 05:58:16;;;;;;;20.98;14.40;;;;;;;11.84;50.25;99706.78;5047953;28;19927;-73
2021/04/21 06:00:45;;;;;;;19.40;13.98;;;;;;;12.05;49.81;99704.03;5062994;28;20045;-75
2021/04/21 06:03:11;;;;;;;24.95;14.75;;;;;;;12.27;50.51;99701.25;5063308;28;20506;-74
2021/04/21 06:05:36;;;;;;;40.08;14.80;;;;;;;12.48;49.18;99707.69;5048506;28;20558;-75
2021/04/21 06:08:12;;;;;;;20.42;13.15;;;;;;;12.81;47.48;99706.09;5045374;28;20084;-75
2021/04/21 06:10:39;;;;;;;21.30;12.75;;;;;;;12.76;47.13;99711.94;5043876;28;20034;-75
2021/04/21 06:13:05;;;;;;;19.83;11.02;;;;;;;12.91;46.29;99708.47;5045387;28;20033;-76
2021/04/21 06:15:40;;;;;;;17.63;11.38;;;;;;;12.83;46.55;99712.19;5044957;28;20490;-79
2021/04/21 06:18:08;;;;;;;18.30;12.32;;;;;;;13.02;47.76;99705.22;5052377;28;20059;-73
2021/04/21 06:20:42;;;;;;;14.73;10.85;;;;;;;13.11;45.43;99703.16;5051778;28;20025;-71
2021/04/21 06:23:14;;;;;;;23.75;10.77;;;;;;;13.34;46.27;99699.94;5052284;28;20025;-70
2021/04/21 06:25:48;;;;;;;13.00;10.77;;;;;;;13.31;46.97;99701.44;5048671;28;20055;-72
2021/04/21 06:28:20;;;;;;;29.60;12.35;;;;;;;13.48;46.91;99703.28;5052330;28;20044;-70
2021/04/21 06:30:50;;;;;;;17.40;9.85;;;;;;;13.51;45.91;99700.94;5049984;28;20040;-72
2021/04/21 06:33:17;;;;;;;13.60;9.77;;;;;;;13.57;45.64;99700.34;5053143;28;20390;-71
2021/04/21 06:35:43;;;;;;;23.65;12.15;;;;;;;13.73;46.65;99702.47;5061480;28;20442;-71
2021/04/21 06:38:10;;;;;;;22.75;11.27;;;;;;;13.65;47.30;99709.03;5055122;28;20031;-69
2021/04/21 06:40:38;;;;;;;15.93;8.73;;;;;;;13.90;44.48;99707.03;5073104;28;20171;-71
2021/04/21 06:43:04;;;;;;;18.42;9.75;;;;;;;13.90;44.94;99701.41;5066626;28;20025;-71
2021/04/21 06:45:32;;;;;;;17.15;10.77;;;;;;;13.83;46.47;99707.63;5069753;28;20386;-71
2021/04/21 06:48:00;;;;;;;15.00;10.63;;;;;;;14.07;45.83;99699.53;5055090;28;20042;-70
2021/04/21 06:50:39;;;;;;;17.35;9.85;;;;;;;14.12;45.11;99702.94;5055008;28;20033;-70
2021/04/21 06:53:08;;;;;;;21.08;11.70;;;;;;;14.08;44.78;99704.00;5072984;28;20031;-72
2021/04/21 06:55:35;;;;;;;24.58;10.52;;;;;;;14.03;46.49;99703.03;5071443;28;20199;-70
2021/04/21 06:58:14;;;;;;;14.63;9.75;;;;;;;14.08;45.15;99704.78;5073023;28;20048;-70
2021/04/21 07:00:39;;;;;;;12.15;9.02;;;;;;;13.95;45.71;99706.81;5071488;28;20039;-70
2021/04/21 07:03:05;;;;;;;15.15;10.18;;;;;;;13.93;47.04;99709.13;5071950;28;20417;-77
2021/04/21 07:05:36;;;;;;;13.57;9.70;;;;;;;14.01;47.04;99705.38;5072755;28;20043;-74
2021/04/21 07:08:16;;;;;;;13.43;8.93;;;;;;;14.18;44.38;99709.13;5054897;28;20025;-80
2021/04/21 07:10:48;;;;;;;14.10;9.65;;;;;;;14.46;45.06;99702.75;5051434;28;20158;-71
2021/04/21 07:13:27;;;;;;;10.35;8.57;;;;;;;14.60;44.76;99702.34;5061356;28;20051;-70
2021/04/21 07:15:55;;;;;;;12.65;9.15;;;;;;;14.34;46.29;99700.75;5053838;28;20033;-69
2021/04/21 07:18:28;;;;;;;14.55;8.10;;;;;;;14.63;43.34;99703.63;5072467;28;20036;-70
2021/04/21 07:20:56;;;;;;;10.27;7.20;;;;;;;14.86;41.92;99701.91;5071091;28;20043;-70
2021/04/21 07:23:24;;;;;;;12.93;8.80;;;;;;;14.87;42.18;99708.38;5071048;28;20021;-69
2021/04/21 07:25:50;;;;;;;11.93;7.82;;;;;;;14.91;42.94;99702.84;5071496;28;20028;-70
2021/04/21 07:28:18;;;;;;;14.25;8.75;;;;;;;15.10;42.26;99705.00;5054312;28;20024;-71
2021/04/21 07:30:44;;;;;;;14.02;7.43;;;;;;;15.17;41.46;99710.81;5072280;28;20032;-72
2021/04/21 07:33:10;;;;;;;8.80;5.70;;;;;;;15.28;39.98;99711.13;5072110;28;20107;-71
2021/04/21 07:35:36;;;;;;;17.08;6.75;;;;;;;15.37;38.59;99708.13;5070055;28;20103;-71
2021/04/21 07:38:15;;;;;;;11.63;7.30;;;;;;;15.60;41.26;99707.50;5051865;28;20078;-71
2021/04/21 07:40:40;;;;;;;16.00;6.82;;;;;;;15.57;37.37;99712.69;5052329;28;20397;-73
2021/04/21 07:43:16;;;;;;;5.97;5.07;;;;;;;15.01;38.15;99714.41;5051658;28;20025;-68
2021/04/21 07:45:54;;;;;;;9.55;5.63;;;;;;;15.38;39.35;99704.13;5052294;28;20459;-69
2021/04/21 07:48:34;;;;;;;8.57;6.13;;;;;;;15.66;38.22;99700.41;5051942;28;20421;-74
2021/04/21 07:51:15;;;;;;;9.02;5.75;;;;;;;15.82;37.66;99700.38;5030835;28;20037;-73
2021/04/21 07:53:54;;;;;;;7.65;5.80;;;;;;;15.80;38.48;99706.38;5049151;28;20025;-69
2021/04/21 07:56:22;;;;;;;7.75;5.88;;;;;;;15.92;37.70;99701.84;5051964;28;20091;-69
2021/04/21 07:58:49;;;;;;;7.65;6.03;;;;;;;16.18;39.09;99700.47;5051566;28;20029;-73
2021/04/21 08:01:15;;;;;;;7.43;5.40;;;;;;;16.14;37.94;99697.56;5030762;28;20030;-69
2021/04/21 08:03:41;;;;;;;6.90;6.00;;;;;;;16.32;38.65;99700.78;5047461;28;20037;-69
2021/04/21 08:06:07;;;;;;;6.70;5.40;;;;;;;16.43;37.25;99689.72;5051867;28;20061;-69
2021/04/21 08:08:34;;;;;;;7.85;5.57;;;;;;;16.03;35.78;99688.81;5030398;28;20039;-69
2021/04/21 08:11:02;;;;;;;6.32;5.20;;;;;;;16.19;37.37;99693.63;5037910;28;20029;-72
2021/04/21 08:13:40;;;;;;;6.55;5.85;;;;;;;15.97;37.36;99684.66;5051650;28;20052;-70
2021/04/21 08:16:22;;;;;;;8.75;6.25;;;;;;;15.76;39.77;99688.56;5033370;28;20387;-67
2021/04/21 08:18:47;;;;;;;7.68;6.28;;;;;;;15.95;38.31;99690.66;5051250;28;20032;-72
2021/04/21 08:21:32;;;;;;;7.70;5.90;;;;;;;15.95;38.28;99687.03;5051681;28;20494;-72
2021/04/21 08:24:04;;;;;;;8.95;6.97;;;;;;;16.17;38.10;99688.34;5051145;28;20137;-72
2021/04/21 08:26:29;;;;;;;7.20;6.30;;;;;;;16.00;38.47;99686.75;5030107;28;20029;-72
2021/04/21 08:28:55;;;;;;;7.50;6.30;;;;;;;16.16;38.50;99685.88;5023663;28;20049;-69
2021/04/21 08:31:24;;;;;;;7.97;6.45;;;;;;;16.46;38.07;99674.88;5050848;28;20032;-72
2021/04/21 08:33:50;;;;;;;7.63;5.68;;;;;;;16.46;37.27;99679.72;5051000;28;20029;-69
2021/04/21 08:36:15;;;;;;;7.57;6.00;;;;;;;16.46;38.70;99683.34;5053201;28;20076;-72
2021/04/21 08:38:41;;;;;;;8.95;7.40;;;;;;;16.19;38.77;99674.69;5050083;28;20021;-69
2021/04/21 08:41:08;;;;;;;7.60;5.85;;;;;;;16.35;38.42;99683.09;5048077;28;20502;-72
2021/04/21 08:43:36;;;;;;;15.13;6.72;;;;;;;16.34;37.16;99678.66;5050879;28;20163;-73
2021/04/21 08:46:03;;;;;;;9.38;6.07;;;;;;;16.46;35.99;99688.97;5050828;28;20390;-72
2021/04/21 08:48:32;;;;;;;8.57;6.50;;;;;;;16.34;38.00;99681.47;5048506;28;20418;-70
2021/04/21 08:50:58;;;;;;;14.77;6.32;;;;;;;16.51;37.87;99671.75;5050517;28;20033;-72
2021/04/21 08:53:24;;;;;;;9.68;5.40;;;;;;;16.61;35.86;99678.03;5061378;28;20025;-70
2021/04/21 08:55:53;;;;;;;9.88;5.47;;;;;;;16.51;36.17;99670.94;5050798;28;20115;-71
2021/04/21 08:58:22;;;;;;;9.23;5.78;;;;;;;16.45;33.68;99666.78;5049792;28;20091;-70
2021/04/21 09:00:47;;;;;;;9.65;5.50;;;;;;;16.23;35.81;99669.13;5066129;28;20108;-65
2021/04/21 09:03:15;;;;;;;12.68;6.30;;;;;;;16.49;37.12;99659.19;5050945;28;20025;-72
2021/04/21 09:05:43;;;;;;;10.57;5.95;;;;;;;16.82;35.77;99660.69;5050287;28;20047;-72
2021/04/21 09:08:10;;;;;;;8.05;5.45;;;;;;;17.15;32.26;99662.16;5050249;28;20040;-71
2021/04/21 09:10:37;;;;;;;5.43;4.93;;;;;;;17.06;31.92;99653.91;5053018;28;20486;-77
2021/04/21 09:13:03;;;;;;;10.48;5.88;;;;;;;17.59;34.74;99651.59;5050822;28;20051;-78
2021/04/21 09:15:29;;;;;;;9.32;4.78;;;;;;;17.63;32.39;99649.66;5065540;28;20029;-72
2021/04/21 09:17:57;;;;;;;9.13;5.15;;;;;;;17.92;32.99;99641.59;5049279;28;20109;-73
2021/04/21 09:20:26;;;;;;;6.82;5.63;;;;;;;17.67;32.83;99642.84;5065594;28;20486;-70
2021/04/21 09:23:04;;;;;;;9.55;6.70;;;;;;;17.79;33.85;99644.66;5050386;28;20108;-70
2021/04/21 09:25:43;;;;;;;5.00;4.03;;;;;;;18.08;29.84;99639.44;5050254;28;20466;-69
2021/04/21 09:28:09;;;;;;;8.45;6.57;;;;;;;18.12;32.79;99630.22;5037557;28;20418;-71
2021/04/21 09:30:37;;;;;;;8.05;5.47;;;;;;;18.04;31.08;99629.25;5046674;28;20036;-68
2021/04/21 09:33:04;;;;;;;5.30;4.63;;;;;;;18.48;28.70;99627.84;5045015;28;20467;-72
2021/04/21 09:35:38;;;;;;;5.40;4.90;;;;;;;18.71;28.90;99624.09;5047588;28;20103;-71
2021/04/21 09:38:15;;;;;;;6.78;5.10;;;;;;;18.91;29.25;99625.50;5031994;28;20115;-74
2021/04/21 09:40:49;;;;;;;11.98;5.03;;;;;;;18.93;29.24;99630.78;5038507;28;20060;-73
2021/04/21 09:43:25;;;;;;;7.70;5.10;;;;;;;19.10;28.82;99635.06;5024961;28;20030;-75
2021/04/21 09:45:53;;;;;;;5.93;4.95;;;;;;;18.97;29.25;99620.31;5050126;28;20063;-82
2021/04/21 09:48:33;;;;;;;5.55;5.05;;;;;;;18.23;29.55;99629.13;5037191;28;20038;-74
2021/04/21 09:51:10;;;;;;;5.47;4.82;;;;;;;18.25;33.16;99625.94;5054264;28;20531;-70
2021/04/21 09:53:42;;;;;;;4.80;4.40;;;;;;;18.55;30.32;99624.28;5054418;28;20041;-80
2021/04/21 09:56:08;;;;;;;5.75;4.97;;;;;;;18.75;29.33;99636.25;5032782;28;20029;-76
2021/04/21 09:58:39;;;;;;;8.77;5.28;;;;;;;18.68;29.53;99628.50;5048289;28;20033;-77
2021/04/21 10:01:33;;;;;;;5.22;3.70;;;;;;;18.67;30.65;99632.53;5053991;28;20036;-69
2021/04/21 10:04:15;;;;;;;5.38;4.47;;;;;;;18.63;32.05;99629.66;5053870;28;20033;-73
2021/04/21 10:06:43;;;;;;;13.68;5.13;;;;;;;18.63;32.69;99634.47;5053792;28;20033;-70
2021/04/21 10:09:27;;;;;;;8.52;5.03;;;;;;;18.34;32.89;99637.78;5032573;28;20029;-68
2021/04/21 10:12:14;;;;;;;7.20;4.70;;;;;;;17.96;33.02;99626.31;5050771;28;20020;-74
2021/04/21 10:14:40;;;;;;;10.88;4.43;;;;;;;17.89;33.14;99629.03;5035423;28;20028;-70
2021/04/21 10:17:07;;;;;;;5.85;4.22;;;;;;;18.13;33.29;99632.63;5053492;28;20041;-74
2021/04/21 10:19:33;;;;;;;5.38;4.80;;;;;;;18.33;33.01;99629.69;5032607;28;20021;-73
2021/04/21 10:22:00;;;;;;;7.82;5.20;;;;;;;18.23;33.37;99628.34;5028114;28;20538;-71
2021/04/21 10:24:29;;;;;;;14.15;5.78;;;;;;;18.14;33.22;99620.13;5053269;28;20036;-75
2021/04/21 10:26:56;;;;;;;5.13;4.40;;;;;;;18.21;32.88;99625.06;5032395;28;20030;-76
2021/04/21 10:29:22;;;;;;;10.93;5.47;;;;;;;18.21;32.78;99620.22;5050463;28;20439;-71
2021/04/21 10:31:51;;;;;;;4.63;3.97;;;;;;;17.96;32.92;99619.81;5032090;28;20029;-70
2021/04/21 10:34:17;;;;;;;20.83;4.88;;;;;;;18.24;34.36;99624.31;5028903;28;20434;-70
2021/04/21 10:36:47;;;;;;;9.25;5.07;;;;;;;18.37;32.49;99622.03;5042173;28;20498;-70
2021/04/21 10:39:13;;;;;;;10.40;4.88;;;;;;;18.63;31.23;99607.00;5051789;28;20061;-72
2021/04/21 10:41:43;;;;;;;7.20;4.63;;;;;;;18.81;31.17;99617.69;5066542;28;20525;-70
2021/04/21 10:44:22;;;;;;;6.72;3.67;;;;;;;19.04;31.53;99617.59;5051996;28;20129;-70
2021/04/21 10:46:57;;;;;;;5.13;4.55;;;;;;;19.10;31.84;99620.88;5052456;28;20124;-71
2021/04/21 10:49:38;;;;;;;9.13;4.75;;;;;;;19.20;31.90;99610.84;5067147;28;20025;-71
2021/04/21 10:52:16;;;;;;;5.97;5.00;;;;;;;19.05;30.52;99619.22;5040622;28;20482;-74
2021/04/21 10:54:46;;;;;;;8.15;4.75;;;;;;;18.91;30.58;99610.53;5048242;28;20076;-71
2021/04/21 10:57:34;;;;;;;6.43;4.32;;;;;;;18.64;30.87;99605.78;5046641;28;20034;-71
2021/04/21 11:00:11;;;;;;;5.15;4.65;;;;;;;18.51;30.80;99598.75;5041365;28;20034;-73
2021/04/21 11:02:39;;;;;;;7.45;5.35;;;;;;;18.48;32.12;99597.50;5042816;28;20029;-79
2021/04/21 11:05:08;;;;;;;5.47;3.92;;;;;;;18.34;29.96;99586.84;5041429;28;20064;-74
2021/04/21 11:07:34;;;;;;;20.65;5.90;;;;;;;18.34;30.99;99592.50;5052461;28;20511;-74
2021/04/21 11:09:59;;;;;;;7.82;4.80;;;;;;;18.44;30.60;99591.00;5052768;28;20032;-72
2021/04/21 11:12:50;;;;;;;24.52;5.45;;;;;;;18.44;30.72;99593.00;5052556;28;20032;-74
2021/04/21 11:15:34;;;;;;;28.42;6.15;;;;;;;18.40;31.91;99600.63;5041931;28;20034;-70
2021/04/21 11:18:12;;;;;;;4.30;3.72;;;;;;;18.28;29.87;99596.84;5040412;28;20234;-73
2021/04/21 11:20:47;;;;;;;5.68;3.95;;;;;;;18.20;30.59;99589.47;5067390;28;20409;-73
2021/04/21 11:23:54;;;;;;;12.50;4.32;;;;;;;18.46;30.29;99587.75;5052669;28;20029;-78
2021/04/21 11:26:23;;;;;;;11.40;3.30;;;;;;;18.55;28.43;99588.28;5052146;28;20029;-73
2021/04/21 11:29:31;;;;;;;5.78;3.20;;;;;;;18.58;28.18;99593.19;5067512;28;20033;-73
2021/04/21 11:31:59;;;;;;;6.22;3.58;;;;;;;18.53;29.83;99602.00;5007824;28;20516;-74
2021/04/21 11:34:33;;;;;;;7.32;4.75;;;;;;;18.12;33.32;99605.53;5050173;28;20044;-74
2021/04/21 11:37:18;;;;;;;5.15;4.65;;;;;;;17.86;34.35;99595.84;5050502;28;20053;-73
2021/04/21 11:39:56;;;;;;;6.70;5.20;;;;;;;17.81;35.95;99594.16;5052223;28;20466;-72
2021/04/21 11:42:33;;;;;;;22.75;6.03;;;;;;;17.99;36.60;99589.97;5052443;28;20037;-71
2021/04/21 11:45:14;;;;;;;8.15;5.70;;;;;;;17.71;35.26;99589.16;5061289;28;20577;-73
2021/04/21 11:47:50;;;;;;;20.10;6.00;;;;;;;17.82;35.55;99592.97;5052278;28;20033;-74
2021/04/21 11:50:28;;;;;;;11.45;6.25;;;;;;;17.74;35.72;99584.75;5047760;28;20584;-75
2021/04/21 11:52:55;;;;;;;6.55;5.18;;;;;;;17.83;34.62;99583.28;5048152;28;20045;-75
2021/04/21 11:55:31;;;;;;;8.02;5.25;;;;;;;17.81;35.18;99582.03;5051098;28;20108;-73
2021/04/21 11:58:11;;;;;;;7.88;4.95;;;;;;;17.96;33.88;99572.56;5047564;28;20120;-74
2021/04/21 12:00:37;;;;;;;;;;;;;;;18.02;33.79;99567.38;5048586;28;20029;-73